createdAt,value
2022-10-18T00:01:12.878Z,15.82
2022-10-18T00:06:14.400Z,15.78
2022-10-18T00:08:42.655Z,15.75
2022-10-18T00:11:12.458Z,15.76
2022-10-18T00:13:40.847Z,15.75
2022-10-18T00:16:18.442Z,15.72
2022-10-18T00:18:48.776Z,15.67
2022-10-18T00:21:19.385Z,15.68
2022-10-18T00:23:49.087Z,15.65
2022-10-18T00:26:21.004Z,15.63
2022-10-18T00:28:52.789Z,15.61
2022-10-18T00:31:24.085Z,15.61
2022-10-18T00:33:55.505Z,15.59
2022-10-18T00:36:24.485Z,15.57
2022-10-18T00:38:53.187Z,15.56
2022-10-18T00:41:25.949Z,15.54
2022-10-18T00:44:05.143Z,15.49
2022-10-18T00:46:36.230Z,15.49
2022-10-18T00:49:09.065Z,15.47
2022-10-18T00:51:44.233Z,15.45
2022-10-18T00:54:13.091Z,15.42
2022-10-18T00:56:44.795Z,15.42
2022-10-18T00:59:15.302Z,15.40
2022-10-18T01:01:43.812Z,15.37
2022-10-18T01:04:12.711Z,15.34
2022-10-18T01:06:52.650Z,15.29
2022-10-18T01:09:31.581Z,15.26
2022-10-18T01:12:18.323Z,15.22
2022-10-18T01:14:54.035Z,15.22
2022-10-18T01:17:29.216Z,15.20
2022-10-18T01:20:30.153Z,15.18
2022-10-18T01:23:04.775Z,15.17
2022-10-18T01:25:43.268Z,15.16
2022-10-18T01:28:39.246Z,15.14
2022-10-18T01:31:12.099Z,15.14
2022-10-18T01:33:44.276Z,15.14
2022-10-18T01:36:20.387Z,15.14
2022-10-18T01:38:53.605Z,15.14
2022-10-18T01:41:25.470Z,15.13
2022-10-18T01:43:58.715Z,15.12
2022-10-18T01:46:29.581Z,15.11
2022-10-18T01:48:58.599Z,15.12
2022-10-18T01:51:29.343Z,15.12
2022-10-18T01:53:57.924Z,15.11
2022-10-18T01:56:36.832Z,15.11
2022-10-18T01:59:45.678Z,15.11
2022-10-18T02:02:29.554Z,15.09
2022-10-18T02:05:06.111Z,15.09
2022-10-18T02:07:39.545Z,15.10
2022-10-18T02:10:12.894Z,15.10
2022-10-18T02:12:45.691Z,15.09
2022-10-18T02:15:19.051Z,15.09
2022-10-18T02:17:48.639Z,15.08
2022-10-18T02:20:21.667Z,15.08
2022-10-18T02:22:52.260Z,15.09
2022-10-18T02:25:25.124Z,15.09
2022-10-18T02:27:53.734Z,15.09
2022-10-18T02:30:26.523Z,15.10
2022-10-18T02:33:03.500Z,15.08
2022-10-18T02:35:36.667Z,15.07
2022-10-18T02:38:06.681Z,15.05
2022-10-18T02:40:35.058Z,15.03
2022-10-18T02:43:03.416Z,15.03
2022-10-18T02:45:31.779Z,15.01
2022-10-18T02:48:01.524Z,14.99
2022-10-18T02:50:29.795Z,15.00
2022-10-18T02:52:58.007Z,14.98
2022-10-18T02:55:26.257Z,14.96
2022-10-18T02:57:54.546Z,14.95
2022-10-18T03:00:22.760Z,14.94
2022-10-18T03:02:51.097Z,14.92
2022-10-18T03:05:20.671Z,14.91
2022-10-18T03:07:48.962Z,14.90
2022-10-18T03:10:17.166Z,14.88
2022-10-18T03:12:45.417Z,14.87
2022-10-18T03:15:13.630Z,14.86
2022-10-18T03:17:41.855Z,14.85
2022-10-18T03:20:11.635Z,14.84
2022-10-18T03:22:41.206Z,14.84
2022-10-18T03:25:10.031Z,14.84
2022-10-18T03:27:38.224Z,14.83
2022-10-18T03:30:08.598Z,14.80
2022-10-18T03:32:36.791Z,14.78
2022-10-18T03:35:05.577Z,14.77
2022-10-18T03:37:33.879Z,14.75
2022-10-18T03:40:03.497Z,14.74
2022-10-18T03:42:31.991Z,14.72
2022-10-18T03:45:00.440Z,14.70
2022-10-18T03:47:28.707Z,14.71
2022-10-18T03:49:57.334Z,14.68
2022-10-18T03:52:26.010Z,14.65
2022-10-18T03:54:54.303Z,14.66
2022-10-18T03:57:23.873Z,14.63
2022-10-18T03:59:52.098Z,14.63
2022-10-18T04:02:20.446Z,14.63
2022-10-18T04:04:49.377Z,14.61
2022-10-18T04:07:17.653Z,14.59
2022-10-18T04:09:45.919Z,14.59
2022-10-18T04:12:14.181Z,14.59
2022-10-18T04:14:43.845Z,14.58
2022-10-18T04:17:12.067Z,14.56
2022-10-18T04:19:40.999Z,14.54
2022-10-18T04:22:09.701Z,14.51
2022-10-18T04:24:37.933Z,14.50
2022-10-18T04:27:06.837Z,14.49
2022-10-18T04:29:35.652Z,14.48
2022-10-18T04:32:05.471Z,14.46
2022-10-18T04:34:33.788Z,14.45
2022-10-18T04:37:02.128Z,14.45
2022-10-18T04:39:30.525Z,14.44
2022-10-18T04:41:58.829Z,14.44
2022-10-18T04:44:27.111Z,14.42
2022-10-18T04:46:55.385Z,14.43
2022-10-18T04:49:24.998Z,14.42
2022-10-18T04:51:53.216Z,14.42
2022-10-18T04:54:22.870Z,14.42
2022-10-18T04:56:53.435Z,14.40
2022-10-18T04:59:21.978Z,14.39
2022-10-18T05:01:50.261Z,14.37
2022-10-18T05:04:18.590Z,14.37
2022-10-18T05:06:48.402Z,14.37
2022-10-18T05:09:16.675Z,14.36
2022-10-18T05:11:45.220Z,14.35
2022-10-18T05:14:13.503Z,14.35
2022-10-18T05:16:41.764Z,14.36
2022-10-18T05:19:10.830Z,14.35
2022-10-18T05:21:39.038Z,14.36
2022-10-18T05:24:08.823Z,14.36
2022-10-18T05:26:37.081Z,14.35
2022-10-18T05:29:05.614Z,14.34
2022-10-18T05:31:33.997Z,14.35
2022-10-18T05:34:02.678Z,14.35
2022-10-18T05:36:30.956Z,14.35
2022-10-18T05:39:02.426Z,14.34
2022-10-18T05:41:34.705Z,14.31
2022-10-18T05:44:05.635Z,14.30
2022-10-18T05:46:34.792Z,14.30
2022-10-18T05:49:03.070Z,14.30
2022-10-18T05:51:31.448Z,14.29
2022-10-18T05:54:00.747Z,14.27
2022-10-18T05:56:29.059Z,14.26
2022-10-18T05:58:58.902Z,14.26
2022-10-18T06:01:27.215Z,14.26
2022-10-18T06:03:55.493Z,14.27
2022-10-18T06:06:23.719Z,14.27
2022-10-18T06:08:51.989Z,14.27
2022-10-18T06:11:21.858Z,14.30
2022-10-18T06:13:52.149Z,14.30
2022-10-18T06:16:26.269Z,14.31
2022-10-18T06:18:59.813Z,14.32
2022-10-18T06:21:28.285Z,14.32
2022-10-18T06:23:59.048Z,14.34
2022-10-18T06:26:28.826Z,14.36
2022-10-18T06:28:57.311Z,14.36
2022-10-18T06:31:27.151Z,14.34
2022-10-18T06:33:58.337Z,14.38
2022-10-18T06:36:26.652Z,14.39
2022-10-18T06:38:56.596Z,14.41
2022-10-18T06:41:25.505Z,14.43
2022-10-18T06:43:57.531Z,14.42
2022-10-18T06:46:27.830Z,14.44
2022-10-18T06:48:57.650Z,14.46
2022-10-18T06:51:25.933Z,14.49
2022-10-18T06:54:06.128Z,14.49
2022-10-18T06:56:41.533Z,14.49
2022-10-18T06:59:09.799Z,14.51
2022-10-18T07:01:39.531Z,14.52
2022-10-18T07:04:07.889Z,14.54
2022-10-18T07:06:36.091Z,14.55
2022-10-18T07:09:04.740Z,14.53
2022-10-18T07:11:33.144Z,14.57
2022-10-18T07:14:04.263Z,14.59
2022-10-18T07:16:34.123Z,14.63
2022-10-18T07:19:03.952Z,14.67
2022-10-18T07:21:32.538Z,14.71
2022-10-18T07:24:00.772Z,14.75
2022-10-18T07:26:31.464Z,14.80
2022-10-18T07:29:02.572Z,14.86
2022-10-18T07:31:31.291Z,14.91
2022-10-18T07:33:59.697Z,14.94
2022-10-18T07:36:29.294Z,15.00
2022-10-18T07:38:57.638Z,15.06
2022-10-18T07:41:25.936Z,15.12
2022-10-18T07:43:55.470Z,15.18
2022-10-18T07:46:24.320Z,15.29
2022-10-18T07:48:53.373Z,15.39
2022-10-18T07:51:22.447Z,15.50
2022-10-18T07:53:52.054Z,15.58
2022-10-18T07:56:23.022Z,15.70
2022-10-18T07:58:53.394Z,15.80
2022-10-18T08:01:22.775Z,15.91
2022-10-18T08:03:53.513Z,16.01
2022-10-18T08:06:23.853Z,16.14
2022-10-18T08:08:53.933Z,16.21
2022-10-18T08:11:24.836Z,16.32
2022-10-18T08:13:54.531Z,16.40
2022-10-18T08:16:26.209Z,16.45
2022-10-18T08:18:55.316Z,16.50
2022-10-18T08:21:23.650Z,16.56
2022-10-18T08:23:53.798Z,16.58
2022-10-18T08:26:24.562Z,16.59
2022-10-18T08:28:58.210Z,16.58
2022-10-18T08:31:38.526Z,16.60
2022-10-18T08:34:06.764Z,16.61
2022-10-18T08:36:35.058Z,16.63
2022-10-18T08:39:05.093Z,16.66
2022-10-18T08:41:48.476Z,16.67
2022-10-18T08:44:22.183Z,16.70
2022-10-18T08:46:53.807Z,16.74
2022-10-18T08:49:29.489Z,16.76
2022-10-18T08:51:58.717Z,16.80
2022-10-18T08:54:36.817Z,16.83
2022-10-18T08:57:14.904Z,16.87
2022-10-18T08:59:44.065Z,16.91
2022-10-18T09:02:29.123Z,16.95
2022-10-18T09:05:05.690Z,16.98
2022-10-18T09:08:14.339Z,17.02
2022-10-18T09:11:00.299Z,17.06
2022-10-18T09:14:03.805Z,17.13
2022-10-18T09:16:41.537Z,17.17
2022-10-18T09:19:23.710Z,17.24
2022-10-18T09:21:54.428Z,17.31
2022-10-18T09:24:29.918Z,17.38
2022-10-18T09:27:13.485Z,17.48
2022-10-18T09:29:58.973Z,17.57
2022-10-18T09:32:41.269Z,17.63
2022-10-18T09:35:19.464Z,17.71
2022-10-18T09:37:48.459Z,17.80
2022-10-18T09:40:21.183Z,17.87
2022-10-18T09:42:58.145Z,17.98
2022-10-18T09:45:31.299Z,18.08
2022-10-18T09:48:08.797Z,18.17
2022-10-18T09:50:41.173Z,18.30
2022-10-18T09:53:20.347Z,18.47
2022-10-18T09:56:00.713Z,18.63
2022-10-18T09:58:42.615Z,18.83
2022-10-18T10:01:13.225Z,19.07
2022-10-18T10:03:42.670Z,19.33
2022-10-18T10:06:25.197Z,19.61
2022-10-18T10:09:02.307Z,19.90
2022-10-18T10:11:36.720Z,20.16
2022-10-18T10:16:53.579Z,20.79
2022-10-18T10:19:28.262Z,21.08
2022-10-18T10:22:03.533Z,21.39
2022-10-18T10:24:41.412Z,21.68
2022-10-18T10:27:20.262Z,21.97
2022-10-18T10:30:02.798Z,22.23
2022-10-18T10:32:48.747Z,22.54
2022-10-18T10:35:53.440Z,22.76
2022-10-18T10:38:28.828Z,23.01
2022-10-18T10:40:57.888Z,23.21
2022-10-18T10:43:44.561Z,23.39
2022-10-18T10:46:18.895Z,23.62
2022-10-18T10:48:57.044Z,23.80
2022-10-18T10:51:34.680Z,23.92
2022-10-18T10:54:04.981Z,23.99
2022-10-18T10:56:36.615Z,24.07
2022-10-18T10:59:15.470Z,24.13
2022-10-18T11:01:47.747Z,24.22
2022-10-18T11:04:29.126Z,24.31
2022-10-18T11:07:12.354Z,24.40
2022-10-18T11:09:56.450Z,24.50
2022-10-18T11:12:33.302Z,24.58
2022-10-18T11:15:17.745Z,24.69
2022-10-18T11:17:57.982Z,24.79
2022-10-18T11:20:33.290Z,24.89
2022-10-18T11:23:06.194Z,24.97
2022-10-18T11:26:09.629Z,25.05
2022-10-18T11:29:01.718Z,25.11
2022-10-18T11:31:35.665Z,25.16
2022-10-18T11:34:24.467Z,25.24
2022-10-18T11:37:22.841Z,25.30
2022-10-18T11:40:03.521Z,25.33
2022-10-18T11:42:40.075Z,25.35
2022-10-18T11:45:25.634Z,25.38
2022-10-18T11:48:01.907Z,25.40
2022-10-18T11:50:41.431Z,25.42
2022-10-18T11:53:23.912Z,25.45
2022-10-18T11:56:03.595Z,25.47
2022-10-18T11:58:56.484Z,25.49
2022-10-18T12:01:32.154Z,25.49
2022-10-18T12:04:08.300Z,25.50
2022-10-18T12:06:41.711Z,25.54
2022-10-18T12:09:30.063Z,25.55
2022-10-18T12:12:02.953Z,25.61
2022-10-18T12:14:36.985Z,25.68
2022-10-18T12:17:41.645Z,25.73
2022-10-18T12:20:16.399Z,25.78
2022-10-18T12:22:52.314Z,25.85
2022-10-18T12:25:20.924Z,25.96
2022-10-18T12:27:58.030Z,26.05
2022-10-18T12:30:33.592Z,26.15
2022-10-18T12:33:27.241Z,26.24
2022-10-18T12:36:12.347Z,26.34
2022-10-18T12:38:45.594Z,26.46
2022-10-18T12:41:24.401Z,26.56
2022-10-18T12:43:54.468Z,26.66
2022-10-18T12:46:23.046Z,26.75
2022-10-18T12:49:04.853Z,26.84
2022-10-18T12:51:33.215Z,26.93
2022-10-18T12:54:13.765Z,27.00
2022-10-18T12:56:44.164Z,27.07
2022-10-18T12:59:54.809Z,27.14
2022-10-18T13:02:29.635Z,27.21
2022-10-18T13:07:44.861Z,27.39
2022-10-18T13:10:42.313Z,27.43
2022-10-18T13:13:45.527Z,27.44
2022-10-18T13:16:37.786Z,27.43
2022-10-18T13:19:30.950Z,27.40
2022-10-18T13:22:27.371Z,27.33
2022-10-18T13:25:04.527Z,27.28
2022-10-18T13:27:46.245Z,27.22
2022-10-18T13:30:38.932Z,27.15
2022-10-18T13:33:28.044Z,27.06
2022-10-18T13:35:57.994Z,27.01
2022-10-18T13:38:41.418Z,26.91
2022-10-18T13:41:13.539Z,26.84
2022-10-18T13:44:24.543Z,26.75
2022-10-18T13:47:37.012Z,26.63
2022-10-18T13:50:35.474Z,26.55
2022-10-18T13:53:32.828Z,26.47
2022-10-18T13:56:37.405Z,26.39
2022-10-18T13:59:41.299Z,26.30
2022-10-18T14:02:59.762Z,26.23
2022-10-18T14:05:51.342Z,26.15
2022-10-18T14:08:26.535Z,26.11
2022-10-18T14:11:04.459Z,26.05
2022-10-18T14:13:40.727Z,26.02
2022-10-18T14:16:29.287Z,25.98
2022-10-18T14:19:12.654Z,25.95
2022-10-18T14:21:49.279Z,25.91
2022-10-18T14:24:23.658Z,25.88
2022-10-18T14:27:14.673Z,25.84
2022-10-18T14:29:43.246Z,25.81
2022-10-18T14:32:26.102Z,25.78
2022-10-18T14:35:09.171Z,25.76
2022-10-18T14:37:43.415Z,25.72
2022-10-18T14:40:38.163Z,25.63
2022-10-18T14:43:12.563Z,25.56
2022-10-18T14:45:41.104Z,25.52
2022-10-18T14:48:19.112Z,25.46
2022-10-18T14:50:51.248Z,25.39
2022-10-18T14:53:23.379Z,25.38
2022-10-18T14:55:56.367Z,25.29
2022-10-18T14:58:25.101Z,25.19
2022-10-18T15:00:54.248Z,25.17
2022-10-18T15:03:24.636Z,25.12
2022-10-18T15:05:56.386Z,25.04
2022-10-18T15:08:26.557Z,24.98
2022-10-18T15:10:55.255Z,24.93
2022-10-18T15:13:25.203Z,24.89
2022-10-18T15:15:54.477Z,24.84
2022-10-18T15:18:27.387Z,24.81
2022-10-18T15:21:22.491Z,24.74
2022-10-18T15:23:51.434Z,24.71
2022-10-18T15:26:25.247Z,24.67
2022-10-18T15:28:58.706Z,24.63
2022-10-18T15:31:30.958Z,24.59
2022-10-18T15:34:13.131Z,24.53
2022-10-18T15:39:18.896Z,24.44
2022-10-18T15:41:51.611Z,24.42
2022-10-18T15:44:27.882Z,24.35
2022-10-18T15:47:10.099Z,24.32
2022-10-18T15:49:58.456Z,24.25
2022-10-18T15:52:44.193Z,24.19
2022-10-18T15:55:47.844Z,24.13
2022-10-18T15:58:23.241Z,24.08
2022-10-18T16:00:53.594Z,24.05
2022-10-18T16:03:24.055Z,23.93
2022-10-18T16:06:00.631Z,23.86
2022-10-18T16:08:30.804Z,23.76
2022-10-18T16:10:59.908Z,23.70
2022-10-18T16:13:28.802Z,23.63
2022-10-18T16:15:57.212Z,23.56
2022-10-18T16:18:26.383Z,23.50
2022-10-18T16:20:56.588Z,23.44
2022-10-18T16:23:28.598Z,23.38
2022-10-18T16:25:57.345Z,23.34
2022-10-18T16:28:28.185Z,23.28
2022-10-18T16:30:59.023Z,23.22
2022-10-18T16:33:28.736Z,23.19
2022-10-18T16:35:59.451Z,23.14
2022-10-18T16:38:34.043Z,23.10
2022-10-18T16:41:04.843Z,23.04
2022-10-18T16:43:34.682Z,23.00
2022-10-18T16:46:04.052Z,22.96
2022-10-18T16:48:32.873Z,22.91
2022-10-18T16:51:02.584Z,22.87
2022-10-18T16:53:30.990Z,22.83
2022-10-18T16:56:02.595Z,22.79
2022-10-18T16:58:34.109Z,22.75
2022-10-18T17:01:04.220Z,22.70
2022-10-18T17:03:35.050Z,22.66
2022-10-18T17:06:04.909Z,22.60
2022-10-18T17:08:33.248Z,22.57
2022-10-18T17:11:01.753Z,22.50
2022-10-18T17:13:30.195Z,22.44
2022-10-18T17:15:59.313Z,22.41
2022-10-18T17:18:27.829Z,22.36
2022-10-18T17:20:56.651Z,22.31
2022-10-18T17:23:26.802Z,22.26
2022-10-18T17:26:06.733Z,22.20
2022-10-18T17:28:38.505Z,22.14
2022-10-18T17:31:08.585Z,22.09
2022-10-18T17:33:37.271Z,22.03
2022-10-18T17:36:06.230Z,22.00
2022-10-18T17:38:35.870Z,21.93
2022-10-18T17:41:08.142Z,21.88
2022-10-18T17:43:38.095Z,21.83
2022-10-18T17:46:06.963Z,21.77
2022-10-18T17:48:35.445Z,21.71
2022-10-18T17:51:09.234Z,21.66
2022-10-18T17:53:39.007Z,21.60
2022-10-18T17:56:08.179Z,21.55
2022-10-18T17:58:37.023Z,21.50
2022-10-18T18:01:13.878Z,21.43
2022-10-18T18:03:42.463Z,21.38
2022-10-18T18:06:17.226Z,21.32
2022-10-18T18:08:47.796Z,21.25
2022-10-18T18:11:18.041Z,21.20
2022-10-18T18:13:46.792Z,21.14
2022-10-18T18:16:17.811Z,21.10
2022-10-18T18:18:47.533Z,21.06
2022-10-18T18:21:15.974Z,21.00
2022-10-18T18:23:46.592Z,20.94
2022-10-18T18:26:15.231Z,20.90
2022-10-18T18:28:43.990Z,20.84
2022-10-18T18:31:14.171Z,20.79
2022-10-18T18:33:43.417Z,20.74
2022-10-18T18:36:12.424Z,20.70
2022-10-18T18:38:42.716Z,20.65
2022-10-18T18:41:16.128Z,20.59
2022-10-18T18:43:46.973Z,20.53
2022-10-18T18:46:15.289Z,20.50
2022-10-18T18:48:43.725Z,20.45
2022-10-18T18:51:17.961Z,20.38
2022-10-18T18:53:47.715Z,20.35
2022-10-18T18:58:54.433Z,20.24
2022-10-18T19:01:25.523Z,20.20
2022-10-18T19:03:55.820Z,20.16
2022-10-18T19:06:26.830Z,20.12
2022-10-18T19:09:00.486Z,20.09
2022-10-18T19:11:32.978Z,20.04
2022-10-18T19:14:02.126Z,20.02
2022-10-18T19:16:32.035Z,19.99
2022-10-18T19:19:02.005Z,19.95
2022-10-18T19:21:34.145Z,19.91
2022-10-18T19:24:03.199Z,19.88
2022-10-18T19:26:36.753Z,19.83
2022-10-18T19:29:13.383Z,19.78
2022-10-18T19:31:42.679Z,19.74
2022-10-18T19:34:13.349Z,19.70
2022-10-18T19:36:43.321Z,19.66
2022-10-18T19:39:18.306Z,19.61
2022-10-18T19:41:49.335Z,19.58
2022-10-18T19:44:18.227Z,19.52
2022-10-18T19:46:47.203Z,19.50
2022-10-18T19:49:16.460Z,19.45
2022-10-18T19:51:45.098Z,19.41
2022-10-18T19:54:15.278Z,19.37
2022-10-18T19:56:44.475Z,19.31
2022-10-18T19:59:16.970Z,19.27
2022-10-18T20:01:46.240Z,19.23
2022-10-18T20:04:14.929Z,19.17
2022-10-18T20:06:44.286Z,19.16
2022-10-18T20:09:17.684Z,19.14
2022-10-18T20:11:49.196Z,19.13
2022-10-18T20:14:18.967Z,19.10
2022-10-18T20:16:47.320Z,19.10
2022-10-18T20:19:15.679Z,19.08
2022-10-18T20:21:44.004Z,19.08
2022-10-18T20:24:12.748Z,19.07
2022-10-18T20:26:41.250Z,19.05
2022-10-18T20:29:09.635Z,19.05
2022-10-18T20:31:39.599Z,19.04
2022-10-18T20:34:11.443Z,19.04
2022-10-18T20:36:40.369Z,19.04
2022-10-18T20:39:09.085Z,19.04
2022-10-18T20:41:41.081Z,19.05
2022-10-18T20:44:14.628Z,19.05
2022-10-18T20:46:45.323Z,19.05
2022-10-18T20:49:16.801Z,19.06
2022-10-18T20:51:45.552Z,19.07
2022-10-18T20:54:14.273Z,19.07
2022-10-18T20:56:43.086Z,19.07
2022-10-18T20:59:11.648Z,19.06
2022-10-18T21:01:40.718Z,19.06
2022-10-18T21:04:11.623Z,19.04
2022-10-18T21:06:42.520Z,19.04
2022-10-18T21:09:13.625Z,19.01
2022-10-18T21:11:44.901Z,18.99
2022-10-18T21:14:16.137Z,18.97
2022-10-18T21:16:45.070Z,18.94
2022-10-18T21:19:19.566Z,18.92
2022-10-18T21:21:50.564Z,18.91
2022-10-18T21:24:20.518Z,18.89
2022-10-18T21:26:49.034Z,18.86
2022-10-18T21:29:21.985Z,18.85
2022-10-18T21:31:53.994Z,18.80
2022-10-18T21:34:23.655Z,18.80
2022-10-18T21:36:52.754Z,18.77
2022-10-18T21:41:57.041Z,18.71
2022-10-18T21:44:25.295Z,18.70
2022-10-18T21:46:55.011Z,18.66
2022-10-18T21:49:25.138Z,18.61
2022-10-18T21:51:53.537Z,18.57
2022-10-18T21:54:21.955Z,18.55
2022-10-18T21:56:51.104Z,18.52
2022-10-18T21:59:19.382Z,18.48
2022-10-18T22:01:47.638Z,18.45
2022-10-18T22:04:21.509Z,18.41
2022-10-18T22:06:51.848Z,18.37
2022-10-18T22:09:21.146Z,18.34
2022-10-18T22:11:52.596Z,18.31
2022-10-18T22:14:21.145Z,18.28
2022-10-18T22:16:49.457Z,18.24
2022-10-18T22:19:17.811Z,18.22
2022-10-18T22:21:46.025Z,18.18
2022-10-18T22:24:15.660Z,18.15
2022-10-18T22:26:45.812Z,18.11
2022-10-18T22:29:17.206Z,18.06
2022-10-18T22:31:48.704Z,18.05
2022-10-18T22:34:19.741Z,18.01
2022-10-18T22:36:48.090Z,17.97
2022-10-18T22:39:18.611Z,17.90
2022-10-18T22:41:47.567Z,17.88
2022-10-18T22:44:16.358Z,17.82
2022-10-18T22:46:44.681Z,17.75
2022-10-18T22:49:13.522Z,17.70
2022-10-18T22:51:41.921Z,17.65
2022-10-18T22:54:10.650Z,17.60
2022-10-18T22:56:40.316Z,17.58
2022-10-18T22:59:08.611Z,17.56
2022-10-18T23:01:37.155Z,17.52
2022-10-18T23:04:05.761Z,17.49
2022-10-18T23:06:36.794Z,17.48
2022-10-18T23:09:08.251Z,17.46
2022-10-18T23:11:37.428Z,17.44
2022-10-18T23:14:08.295Z,17.42
2022-10-18T23:16:37.908Z,17.38
2022-10-18T23:19:06.162Z,17.37
2022-10-18T23:21:35.552Z,17.35
2022-10-18T23:24:03.981Z,17.33
2022-10-18T23:26:32.496Z,17.31
2022-10-18T23:29:00.849Z,17.28
2022-10-18T23:31:32.717Z,17.26
2022-10-18T23:34:03.905Z,17.23
2022-10-18T23:36:33.231Z,17.22
2022-10-18T23:39:01.491Z,17.20
2022-10-18T23:41:29.784Z,17.15
2022-10-18T23:43:58.032Z,17.17
2022-10-18T23:46:26.624Z,17.15
2022-10-18T23:48:56.271Z,17.09
2022-10-18T23:51:24.530Z,17.12
2022-10-18T23:53:52.748Z,17.13
2022-10-18T23:56:20.996Z,17.12
2022-10-18T23:58:49.219Z,17.10
